sensor_id;sensor_type;location;lat;lon;timestamp;temperature;humidity
20594;DHT22;10455;48.732;10.266;2023-04-24T00:03:10;9.50;99.90
20594;DHT22;10455;48.732;10.266;2023-04-24T00:08:14;9.50;99.90
20594;DHT22;10455;48.732;10.266;2023-04-24T00:13:16;9.50;99.90
20594;DHT22;10455;48.732;10.266;2023-04-24T00:18:18;9.50;99.90
20594;DHT22;10455;48.732;10.266;2023-04-24T00:23:22;9.50;99.90
20594;DHT22;10455;48.732;10.266;2023-04-24T00:28:23;9.50;99.90
20594;DHT22;10455;48.732;10.266;2023-04-24T00:33:25;9.40;99.90
20594;DHT22;10455;48.732;10.266;2023-04-24T00:38:29;9.40;99.90
20594;DHT22;10455;48.732;10.266;2023-04-24T00:43:31;9.40;99.90
20594;DHT22;10455;48.732;10.266;2023-04-24T00:48:33;9.50;99.90
20594;DHT22;10455;48.732;10.266;2023-04-24T00:53:36;9.60;99.90
20594;DHT22;10455;48.732;10.266;2023-04-24T00:58:41;9.60;99.90
20594;DHT22;10455;48.732;10.266;2023-04-24T01:03:44;9.70;99.90
20594;DHT22;10455;48.732;10.266;2023-04-24T01:08:47;9.60;99.90
20594;DHT22;10455;48.732;10.266;2023-04-24T01:13:50;9.50;99.90
20594;DHT22;10455;48.732;10.266;2023-04-24T01:18:52;9.50;99.90
20594;DHT22;10455;48.732;10.266;2023-04-24T01:23:55;9.40;99.90
20594;DHT22;10455;48.732;10.266;2023-04-24T01:28:58;9.40;99.90
20594;DHT22;10455;48.732;10.266;2023-04-24T01:34:00;9.30;99.90
20594;DHT22;10455;48.732;10.266;2023-04-24T01:39:04;9.30;99.90
20594;DHT22;10455;48.732;10.266;2023-04-24T01:44:06;9.30;99.90
20594;DHT22;10455;48.732;10.266;2023-04-24T01:49:08;9.20;99.90
20594;DHT22;10455;48.732;10.266;2023-04-24T01:54:11;9.10;99.90
20594;DHT22;10455;48.732;10.266;2023-04-24T01:59:13;9.10;99.90
20594;DHT22;10455;48.732;10.266;2023-04-24T02:04:17;9.10;99.90
20594;DHT22;10455;48.732;10.266;2023-04-24T02:09:20;9.00;99.90
20594;DHT22;10455;48.732;10.266;2023-04-24T02:14:22;9.00;99.90
20594;DHT22;10455;48.732;10.266;2023-04-24T02:19:24;9.00;99.90
20594;DHT22;10455;48.732;10.266;2023-04-24T02:24:27;9.00;99.90
20594;DHT22;10455;48.732;10.266;2023-04-24T02:29:29;9.00;99.90
20594;DHT22;10455;48.732;10.266;2023-04-24T02:34:31;9.00;99.90
20594;DHT22;10455;48.732;10.266;2023-04-24T02:39:34;9.00;99.90
20594;DHT22;10455;48.732;10.266;2023-04-24T02:44:36;9.10;99.90
20594;DHT22;10455;48.732;10.266;2023-04-24T02:49:38;9.00;99.90
20594;DHT22;10455;48.732;10.266;2023-04-24T02:54:41;9.10;99.90
20594;DHT22;10455;48.732;10.266;2023-04-24T02:59:43;9.10;99.90
20594;DHT22;10455;48.732;10.266;2023-04-24T03:04:45;9.00;99.90
20594;DHT22;10455;48.732;10.266;2023-04-24T03:09:49;8.90;99.90
20594;DHT22;10455;48.732;10.266;2023-04-24T03:14:51;8.90;99.90
20594;DHT22;10455;48.732;10.266;2023-04-24T03:19:53;8.90;99.90
20594;DHT22;10455;48.732;10.266;2023-04-24T03:25:00;8.80;99.90
20594;DHT22;10455;48.732;10.266;2023-04-24T03:30:02;8.80;99.90
20594;DHT22;10455;48.732;10.266;2023-04-24T03:35:05;8.80;99.90
20594;DHT22;10455;48.732;10.266;2023-04-24T03:40:10;8.70;99.90
20594;DHT22;10455;48.732;10.266;2023-04-24T03:45:12;8.70;99.90
20594;DHT22;10455;48.732;10.266;2023-04-24T03:50:14;8.70;99.90
20594;DHT22;10455;48.732;10.266;2023-04-24T03:55:18;8.80;99.90
20594;DHT22;10455;48.732;10.266;2023-04-24T04:00:20;8.80;99.90
20594;DHT22;10455;48.732;10.266;2023-04-24T04:05:22;9.00;99.90
20594;DHT22;10455;48.732;10.266;2023-04-24T04:10:25;9.00;99.90
20594;DHT22;10455;48.732;10.266;2023-04-24T04:15:27;9.00;99.90
20594;DHT22;10455;48.732;10.266;2023-04-24T04:20:29;9.10;99.90
20594;DHT22;10455;48.732;10.266;2023-04-24T04:25:32;9.00;99.90
20594;DHT22;10455;48.732;10.266;2023-04-24T04:30:34;9.00;99.90
20594;DHT22;10455;48.732;10.266;2023-04-24T04:35:38;8.90;99.90
20594;DHT22;10455;48.732;10.266;2023-04-24T04:40:42;8.80;99.90
20594;DHT22;10455;48.732;10.266;2023-04-24T04:45:44;9.00;99.90
20594;DHT22;10455;48.732;10.266;2023-04-24T04:50:46;9.10;99.90
20594;DHT22;10455;48.732;10.266;2023-04-24T04:55:49;9.10;99.90
20594;DHT22;10455;48.732;10.266;2023-04-24T05:00:51;9.10;99.90
20594;DHT22;10455;48.732;10.266;2023-04-24T05:05:53;9.20;99.90
20594;DHT22;10455;48.732;10.266;2023-04-24T05:10:56;9.10;99.90
20594;DHT22;10455;48.732;10.266;2023-04-24T05:15:58;9.00;99.90
20594;DHT22;10455;48.732;10.266;2023-04-24T05:21:01;9.00;99.90
20594;DHT22;10455;48.732;10.266;2023-04-24T05:26:04;9.00;99.90
20594;DHT22;10455;48.732;10.266;2023-04-24T05:31:06;9.10;99.90
20594;DHT22;10455;48.732;10.266;2023-04-24T05:36:08;9.10;99.90
20594;DHT22;10455;48.732;10.266;2023-04-24T05:41:12;9.10;99.90
20594;DHT22;10455;48.732;10.266;2023-04-24T05:46:13;9.10;99.90
20594;DHT22;10455;48.732;10.266;2023-04-24T05:51:15;9.40;99.90
20594;DHT22;10455;48.732;10.266;2023-04-24T05:56:19;9.80;99.90
20594;DHT22;10455;48.732;10.266;2023-04-24T06:01:21;10.00;99.90
20594;DHT22;10455;48.732;10.266;2023-04-24T06:06:23;10.10;99.90
20594;DHT22;10455;48.732;10.266;2023-04-24T06:11:27;9.10;99.90
20594;DHT22;10455;48.732;10.266;2023-04-24T06:16:30;7.90;99.90
20594;DHT22;10455;48.732;10.266;2023-04-24T06:21:32;7.60;99.90
20594;DHT22;10455;48.732;10.266;2023-04-24T06:26:35;7.30;99.90
20594;DHT22;10455;48.732;10.266;2023-04-24T06:31:37;7.10;99.90
20594;DHT22;10455;48.732;10.266;2023-04-24T06:36:43;6.90;99.90
20594;DHT22;10455;48.732;10.266;2023-04-24T06:41:47;6.80;99.90
20594;DHT22;10455;48.732;10.266;2023-04-24T06:46:49;7.10;99.90
20594;DHT22;10455;48.732;10.266;2023-04-24T06:51:50;7.30;99.90
20594;DHT22;10455;48.732;10.266;2023-04-24T06:56:54;7.70;99.90
20594;DHT22;10455;48.732;10.266;2023-04-24T07:01:57;8.40;99.90
20594;DHT22;10455;48.732;10.266;2023-04-24T07:06:59;8.70;99.90
20594;DHT22;10455;48.732;10.266;2023-04-24T07:12:03;9.00;99.90
20594;DHT22;10455;48.732;10.266;2023-04-24T07:17:05;10.20;99.90
20594;DHT22;10455;48.732;10.266;2023-04-24T07:22:07;10.80;99.90
20594;DHT22;10455;48.732;10.266;2023-04-24T07:27:10;11.40;99.90
20594;DHT22;10455;48.732;10.266;2023-04-24T07:32:12;12.20;99.90
20594;DHT22;10455;48.732;10.266;2023-04-24T07:37:14;14.50;99.90
20594;DHT22;10455;48.732;10.266;2023-04-24T07:42:17;16.50;99.90
20594;DHT22;10455;48.732;10.266;2023-04-24T07:47:19;15.00;99.90
20594;DHT22;10455;48.732;10.266;2023-04-24T07:52:21;13.00;99.90
20594;DHT22;10455;48.732;10.266;2023-04-24T07:57:24;12.90;99.90
20594;DHT22;10455;48.732;10.266;2023-04-24T08:02:26;13.10;99.90
20594;DHT22;10455;48.732;10.266;2023-04-24T08:07:28;12.30;99.90
20594;DHT22;10455;48.732;10.266;2023-04-24T08:12:32;11.30;99.90
20594;DHT22;10455;48.732;10.266;2023-04-24T08:17:34;12.10;99.90
20594;DHT22;10455;48.732;10.266;2023-04-24T08:22:36;14.50;99.90
20594;DHT22;10455;48.732;10.266;2023-04-24T08:27:39;16.00;99.90
20594;DHT22;10455;48.732;10.266;2023-04-24T08:32:41;14.00;99.90
20594;DHT22;10455;48.732;10.266;2023-04-24T08:37:43;13.30;99.90
20594;DHT22;10455;48.732;10.266;2023-04-24T08:42:47;15.80;99.90
20594;DHT22;10455;48.732;10.266;2023-04-24T08:47:49;19.00;99.90
20594;DHT22;10455;48.732;10.266;2023-04-24T08:52:52;16.00;99.90
20594;DHT22;10455;48.732;10.266;2023-04-24T08:57:55;12.00;99.90
20594;DHT22;10455;48.732;10.266;2023-04-24T09:03:00;10.20;99.90
20594;DHT22;10455;48.732;10.266;2023-04-24T09:08:02;8.80;99.90
20594;DHT22;10455;48.732;10.266;2023-04-24T09:13:07;8.80;99.90
20594;DHT22;10455;48.732;10.266;2023-04-24T09:18:10;9.90;99.90
20594;DHT22;10455;48.732;10.266;2023-04-24T09:23:17;12.00;99.90
20594;DHT22;10455;48.732;10.266;2023-04-24T09:28:25;15.40;99.90
20594;DHT22;10455;48.732;10.266;2023-04-24T09:33:29;15.40;99.90
20594;DHT22;10455;48.732;10.266;2023-04-24T09:38:32;16.30;99.90
20594;DHT22;10455;48.732;10.266;2023-04-24T09:43:35;16.80;99.90
20594;DHT22;10455;48.732;10.266;2023-04-24T09:48:38;17.10;99.90
20594;DHT22;10455;48.732;10.266;2023-04-24T09:53:45;16.00;99.90
20594;DHT22;10455;48.732;10.266;2023-04-24T09:58:52;14.70;99.90
20594;DHT22;10455;48.732;10.266;2023-04-24T10:03:54;16.70;99.90
20594;DHT22;10455;48.732;10.266;2023-04-24T10:08:56;18.40;99.90
20594;DHT22;10455;48.732;10.266;2023-04-24T10:14:00;20.10;99.90
20594;DHT22;10455;48.732;10.266;2023-04-24T10:19:03;18.50;99.90
20594;DHT22;10455;48.732;10.266;2023-04-24T10:24:05;17.80;99.90
20594;DHT22;10455;48.732;10.266;2023-04-24T10:29:10;20.20;99.90
20594;DHT22;10455;48.732;10.266;2023-04-24T10:34:15;20.60;99.90
20594;DHT22;10455;48.732;10.266;2023-04-24T10:39:17;19.70;99.00
20594;DHT22;10455;48.732;10.266;2023-04-24T10:44:23;16.90;99.90
20594;DHT22;10455;48.732;10.266;2023-04-24T10:49:29;16.70;99.90
20594;DHT22;10455;48.732;10.266;2023-04-24T10:54:35;18.20;99.90
20594;DHT22;10455;48.732;10.266;2023-04-24T10:59:38;19.40;99.70
20594;DHT22;10455;48.732;10.266;2023-04-24T11:04:41;17.40;97.40
20594;DHT22;10455;48.732;10.266;2023-04-24T11:09:44;16.20;98.40
20594;DHT22;10455;48.732;10.266;2023-04-24T11:15:03;15.80;99.20
20594;DHT22;10455;48.732;10.266;2023-04-24T11:20:06;17.20;97.50
20594;DHT22;10455;48.732;10.266;2023-04-24T11:25:10;18.80;95.80
20594;DHT22;10455;48.732;10.266;2023-04-24T11:30:17;18.40;94.40
20594;DHT22;10455;48.732;10.266;2023-04-24T11:35:21;16.90;96.00
20594;DHT22;10455;48.732;10.266;2023-04-24T11:40:25;15.70;95.60
20594;DHT22;10455;48.732;10.266;2023-04-24T11:45:30;13.50;99.00
20594;DHT22;10455;48.732;10.266;2023-04-24T11:50:32;13.80;99.90
20594;DHT22;10455;48.732;10.266;2023-04-24T11:55:34;17.90;98.30
20594;DHT22;10455;48.732;10.266;2023-04-24T12:00:37;17.90;94.50
20594;DHT22;10455;48.732;10.266;2023-04-24T12:05:39;16.30;93.20
20594;DHT22;10455;48.732;10.266;2023-04-24T12:10:41;15.70;98.10
20594;DHT22;10455;48.732;10.266;2023-04-24T12:15:45;15.20;97.80
20594;DHT22;10455;48.732;10.266;2023-04-24T12:20:46;15.10;97.10
20594;DHT22;10455;48.732;10.266;2023-04-24T12:25:51;15.20;97.60
20594;DHT22;10455;48.732;10.266;2023-04-24T12:30:55;15.50;97.20
20594;DHT22;10455;48.732;10.266;2023-04-24T12:35:57;15.20;97.00
20594;DHT22;10455;48.732;10.266;2023-04-24T12:41:03;14.50;96.40
20594;DHT22;10455;48.732;10.266;2023-04-24T12:46:07;14.60;96.90
20594;DHT22;10455;48.732;10.266;2023-04-24T12:51:09;13.50;97.90
20594;DHT22;10455;48.732;10.266;2023-04-24T12:56:11;14.80;98.80
20594;DHT22;10455;48.732;10.266;2023-04-24T13:01:14;15.30;97.50
20594;DHT22;10455;48.732;10.266;2023-04-24T13:06:16;14.30;98.60
20594;DHT22;10455;48.732;10.266;2023-04-24T13:11:18;14.60;97.80
20594;DHT22;10455;48.732;10.266;2023-04-24T13:16:21;15.10;97.70
20594;DHT22;10455;48.732;10.266;2023-04-24T13:21:23;15.40;96.80
20594;DHT22;10455;48.732;10.266;2023-04-24T13:26:26;14.20;98.40
20594;DHT22;10455;48.732;10.266;2023-04-24T13:31:29;12.70;99.90
20594;DHT22;10455;48.732;10.266;2023-04-24T13:36:31;11.40;99.90
20594;DHT22;10455;48.732;10.266;2023-04-24T13:41:33;11.20;99.90
20594;DHT22;10455;48.732;10.266;2023-04-24T13:46:38;12.20;99.90
20594;DHT22;10455;48.732;10.266;2023-04-24T13:51:41;14.80;99.90
20594;DHT22;10455;48.732;10.266;2023-04-24T13:56:43;16.90;98.90
20594;DHT22;10455;48.732;10.266;2023-04-24T14:01:46;15.70;96.50
20594;DHT22;10455;48.732;10.266;2023-04-24T14:06:48;14.00;99.00
20594;DHT22;10455;48.732;10.266;2023-04-24T14:11:51;13.50;99.90
20594;DHT22;10455;48.732;10.266;2023-04-24T14:16:55;14.20;99.90
20594;DHT22;10455;48.732;10.266;2023-04-24T14:21:57;14.10;99.80
20594;DHT22;10455;48.732;10.266;2023-04-24T14:26:58;14.60;98.80
20594;DHT22;10455;48.732;10.266;2023-04-24T14:32:02;14.20;99.90
20594;DHT22;10455;48.732;10.266;2023-04-24T14:37:04;14.00;99.80
20594;DHT22;10455;48.732;10.266;2023-04-24T14:42:06;13.60;99.90
20594;DHT22;10455;48.732;10.266;2023-04-24T14:47:09;13.10;99.90
20594;DHT22;10455;48.732;10.266;2023-04-24T14:52:11;12.00;99.90
20594;DHT22;10455;48.732;10.266;2023-04-24T14:57:13;11.70;99.90
20594;DHT22;10455;48.732;10.266;2023-04-24T15:02:16;12.60;99.90
20594;DHT22;10455;48.732;10.266;2023-04-24T15:07:18;14.80;99.70
20594;DHT22;10455;48.732;10.266;2023-04-24T15:12:21;17.20;96.00
20594;DHT22;10455;48.732;10.266;2023-04-24T15:17:24;15.00;97.50
20594;DHT22;10455;48.732;10.266;2023-04-24T15:22:27;13.30;99.90
20594;DHT22;10455;48.732;10.266;2023-04-24T15:27:39;12.40;99.90
20594;DHT22;10455;48.732;10.266;2023-04-24T15:32:43;11.10;99.90
20594;DHT22;10455;48.732;10.266;2023-04-24T15:37:45;10.40;99.90
20594;DHT22;10455;48.732;10.266;2023-04-24T15:42:47;9.90;99.90
20594;DHT22;10455;48.732;10.266;2023-04-24T15:47:50;9.80;99.90
20594;DHT22;10455;48.732;10.266;2023-04-24T15:52:52;10.30;99.90
20594;DHT22;10455;48.732;10.266;2023-04-24T15:57:54;11.00;99.90
20594;DHT22;10455;48.732;10.266;2023-04-24T16:02:58;12.00;99.90
20594;DHT22;10455;48.732;10.266;2023-04-24T16:08:00;12.40;99.90
20594;DHT22;10455;48.732;10.266;2023-04-24T16:13:01;11.80;99.90
20594;DHT22;10455;48.732;10.266;2023-04-24T16:18:06;11.40;99.90
20594;DHT22;10455;48.732;10.266;2023-04-24T16:23:07;11.80;99.90
20594;DHT22;10455;48.732;10.266;2023-04-24T16:28:09;12.10;99.90
20594;DHT22;10455;48.732;10.266;2023-04-24T16:33:13;11.90;99.90
20594;DHT22;10455;48.732;10.266;2023-04-24T16:38:15;11.80;99.90
20594;DHT22;10455;48.732;10.266;2023-04-24T16:43:17;11.00;99.90
20594;DHT22;10455;48.732;10.266;2023-04-24T16:48:20;10.50;99.90
20594;DHT22;10455;48.732;10.266;2023-04-24T16:53:22;10.40;99.90
20594;DHT22;10455;48.732;10.266;2023-04-24T16:58:25;10.60;99.90
20594;DHT22;10455;48.732;10.266;2023-04-24T17:03:28;10.90;99.90
20594;DHT22;10455;48.732;10.266;2023-04-24T17:08:30;10.90;99.90
20594;DHT22;10455;48.732;10.266;2023-04-24T17:13:32;11.00;99.90
20594;DHT22;10455;48.732;10.266;2023-04-24T17:18:35;10.80;99.90
20594;DHT22;10455;48.732;10.266;2023-04-24T17:23:37;10.50;99.90
20594;DHT22;10455;48.732;10.266;2023-04-24T17:28:39;10.30;99.90
20594;DHT22;10455;48.732;10.266;2023-04-24T17:33:42;10.50;99.90
20594;DHT22;10455;48.732;10.266;2023-04-24T17:38:44;10.60;99.90
20594;DHT22;10455;48.732;10.266;2023-04-24T17:43:46;10.20;99.90
20594;DHT22;10455;48.732;10.266;2023-04-24T17:48:49;10.00;99.90
20594;DHT22;10455;48.732;10.266;2023-04-24T17:53:51;9.70;99.90
20594;DHT22;10455;48.732;10.266;2023-04-24T17:58:53;9.30;99.90
20594;DHT22;10455;48.732;10.266;2023-04-24T18:03:56;8.90;99.90
20594;DHT22;10455;48.732;10.266;2023-04-24T18:08:58;8.70;99.90
20594;DHT22;10455;48.732;10.266;2023-04-24T18:14:01;8.40;99.90
20594;DHT22;10455;48.732;10.266;2023-04-24T18:19:04;8.10;99.90
20594;DHT22;10455;48.732;10.266;2023-04-24T18:24:06;8.00;99.90
20594;DHT22;10455;48.732;10.266;2023-04-24T18:29:09;7.70;99.90
20594;DHT22;10455;48.732;10.266;2023-04-24T18:34:13;7.50;99.90
20594;DHT22;10455;48.732;10.266;2023-04-24T18:39:14;7.20;99.90
20594;DHT22;10455;48.732;10.266;2023-04-24T18:44:16;7.00;99.90
20594;DHT22;10455;48.732;10.266;2023-04-24T18:49:20;6.70;99.90
20594;DHT22;10455;48.732;10.266;2023-04-24T18:54:22;6.30;99.90
20594;DHT22;10455;48.732;10.266;2023-04-24T18:59:25;6.00;99.90
20594;DHT22;10455;48.732;10.266;2023-04-24T19:04:29;5.60;99.90
20594;DHT22;10455;48.732;10.266;2023-04-24T19:09:33;5.60;99.90
20594;DHT22;10455;48.732;10.266;2023-04-24T19:14:35;5.70;99.90
20594;DHT22;10455;48.732;10.266;2023-04-24T19:19:38;5.80;99.90
20594;DHT22;10455;48.732;10.266;2023-04-24T19:24:40;6.00;99.90
20594;DHT22;10455;48.732;10.266;2023-04-24T19:29:42;6.10;99.90
20594;DHT22;10455;48.732;10.266;2023-04-24T19:34:46;6.20;99.90
20594;DHT22;10455;48.732;10.266;2023-04-24T19:39:47;6.30;99.90
20594;DHT22;10455;48.732;10.266;2023-04-24T19:44:49;6.40;99.90
20594;DHT22;10455;48.732;10.266;2023-04-24T19:49:52;6.60;99.90
20594;DHT22;10455;48.732;10.266;2023-04-24T19:54:54;6.70;99.90
20594;DHT22;10455;48.732;10.266;2023-04-24T19:59:56;6.90;99.90
20594;DHT22;10455;48.732;10.266;2023-04-24T20:04:59;7.10;99.90
20594;DHT22;10455;48.732;10.266;2023-04-24T20:10:01;7.20;99.90
20594;DHT22;10455;48.732;10.266;2023-04-24T20:15:04;7.30;99.90
20594;DHT22;10455;48.732;10.266;2023-04-24T20:20:09;7.30;99.90
20594;DHT22;10455;48.732;10.266;2023-04-24T20:25:11;6.90;99.90
20594;DHT22;10455;48.732;10.266;2023-04-24T20:30:14;6.70;99.90
20594;DHT22;10455;48.732;10.266;2023-04-24T20:35:17;6.80;99.90
20594;DHT22;10455;48.732;10.266;2023-04-24T20:40:19;6.90;99.90
20594;DHT22;10455;48.732;10.266;2023-04-24T20:45:21;7.10;99.90
20594;DHT22;10455;48.732;10.266;2023-04-24T20:50:25;7.20;99.90
20594;DHT22;10455;48.732;10.266;2023-04-24T20:55:27;7.30;99.90
20594;DHT22;10455;48.732;10.266;2023-04-24T21:00:29;7.20;99.90
20594;DHT22;10455;48.732;10.266;2023-04-24T21:05:32;7.20;99.90
20594;DHT22;10455;48.732;10.266;2023-04-24T21:10:34;7.30;99.90
20594;DHT22;10455;48.732;10.266;2023-04-24T21:15:36;7.40;99.90
20594;DHT22;10455;48.732;10.266;2023-04-24T21:20:40;7.40;99.90
20594;DHT22;10455;48.732;10.266;2023-04-24T21:25:42;7.60;99.90
20594;DHT22;10455;48.732;10.266;2023-04-24T21:30:44;7.70;99.90
20594;DHT22;10455;48.732;10.266;2023-04-24T21:35:47;7.80;99.90
20594;DHT22;10455;48.732;10.266;2023-04-24T21:40:49;7.90;99.90
20594;DHT22;10455;48.732;10.266;2023-04-24T21:45:51;7.80;99.90
20594;DHT22;10455;48.732;10.266;2023-04-24T21:50:54;7.80;99.90
20594;DHT22;10455;48.732;10.266;2023-04-24T21:55:56;7.90;99.90
20594;DHT22;10455;48.732;10.266;2023-04-24T22:00:58;7.80;99.90
20594;DHT22;10455;48.732;10.266;2023-04-24T22:06:01;7.90;99.90
20594;DHT22;10455;48.732;10.266;2023-04-24T22:11:03;7.70;99.90
20594;DHT22;10455;48.732;10.266;2023-04-24T22:16:05;7.70;99.90
20594;DHT22;10455;48.732;10.266;2023-04-24T22:21:08;7.70;99.90
20594;DHT22;10455;48.732;10.266;2023-04-24T22:26:10;7.80;99.90
20594;DHT22;10455;48.732;10.266;2023-04-24T22:31:12;7.90;99.90
20594;DHT22;10455;48.732;10.266;2023-04-24T22:36:15;7.90;99.90
20594;DHT22;10455;48.732;10.266;2023-04-24T22:41:17;7.70;99.90
20594;DHT22;10455;48.732;10.266;2023-04-24T22:46:19;7.50;99.90
20594;DHT22;10455;48.732;10.266;2023-04-24T22:51:23;7.40;99.90
20594;DHT22;10455;48.732;10.266;2023-04-24T22:56:25;7.10;99.90
20594;DHT22;10455;48.732;10.266;2023-04-24T23:01:27;6.90;99.90
20594;DHT22;10455;48.732;10.266;2023-04-24T23:06:30;6.60;99.90
20594;DHT22;10455;48.732;10.266;2023-04-24T23:11:32;6.10;99.90
20594;DHT22;10455;48.732;10.266;2023-04-24T23:16:34;5.90;99.90
20594;DHT22;10455;48.732;10.266;2023-04-24T23:21:39;5.80;99.90
20594;DHT22;10455;48.732;10.266;2023-04-24T23:26:41;5.60;99.90
20594;DHT22;10455;48.732;10.266;2023-04-24T23:31:43;5.40;99.90
20594;DHT22;10455;48.732;10.266;2023-04-24T23:36:47;5.10;99.90
20594;DHT22;10455;48.732;10.266;2023-04-24T23:41:49;5.00;99.90
20594;DHT22;10455;48.732;10.266;2023-04-24T23:46:53;5.00;99.90
20594;DHT22;10455;48.732;10.266;2023-04-24T23:51:56;4.90;99.90
20594;DHT22;10455;48.732;10.266;2023-04-24T23:56:58;4.90;99.90
